createdAt,value
2023-05-16T00:00:55.557Z,9.84
2023-05-16T00:03:43.370Z,9.88
2023-05-16T00:06:30.331Z,9.85
2023-05-16T00:09:17.493Z,9.76
2023-05-16T00:12:04.678Z,9.76
2023-05-16T00:14:52.838Z,9.76
2023-05-16T00:17:41.053Z,9.72
2023-05-16T00:20:29.003Z,9.72
2023-05-16T00:23:17.123Z,9.70
2023-05-16T00:26:04.048Z,9.72
2023-05-16T00:28:50.852Z,9.72
2023-05-16T00:31:37.775Z,9.73
2023-05-16T00:34:24.695Z,9.70
2023-05-16T00:37:11.548Z,9.68
2023-05-16T00:39:58.411Z,9.67
2023-05-16T00:42:45.523Z,9.60
2023-05-16T00:45:32.352Z,9.60
2023-05-16T00:48:19.389Z,9.63
2023-05-16T00:51:09.360Z,9.67
2023-05-16T00:53:57.178Z,9.65
2023-05-16T00:56:44.112Z,9.64
2023-05-16T00:59:31.187Z,9.59
2023-05-16T01:02:18.274Z,9.56
2023-05-16T01:05:05.579Z,9.59
2023-05-16T01:07:52.387Z,9.63
2023-05-16T01:10:55.130Z,9.72
2023-05-16T01:13:42.337Z,9.80
2023-05-16T01:16:32.251Z,9.62
2023-05-16T01:19:37.822Z,9.56
2023-05-16T01:22:49.032Z,9.50
2023-05-16T01:25:56.626Z,9.49
2023-05-16T01:28:46.932Z,9.50
2023-05-16T01:31:33.969Z,9.50
2023-05-16T01:34:20.964Z,9.58
2023-05-16T01:37:35.390Z,9.58
2023-05-16T01:40:46.140Z,9.59
2023-05-16T01:43:46.299Z,9.55
2023-05-16T01:46:38.812Z,9.55
2023-05-16T01:49:31.435Z,9.56
2023-05-16T01:52:35.187Z,9.42
2023-05-16T01:55:36.968Z,9.35
2023-05-16T01:58:28.365Z,9.27
2023-05-16T02:01:15.816Z,9.24
2023-05-16T02:04:03.188Z,9.21
2023-05-16T02:06:51.131Z,9.15
2023-05-16T02:09:37.991Z,9.20
2023-05-16T02:12:26.317Z,9.21
2023-05-16T02:15:14.591Z,9.25
2023-05-16T02:18:01.457Z,9.31
2023-05-16T02:20:48.370Z,9.25
2023-05-16T02:23:35.273Z,9.28
2023-05-16T02:26:22.323Z,9.22
2023-05-16T02:29:09.704Z,9.11
2023-05-16T02:31:56.551Z,9.17
2023-05-16T02:34:43.487Z,9.18
2023-05-16T02:37:30.339Z,9.13
2023-05-16T02:40:17.274Z,9.14
2023-05-16T02:43:04.113Z,9.11
2023-05-16T02:45:51.034Z,9.13
2023-05-16T02:48:37.904Z,9.25
2023-05-16T02:51:27.149Z,9.20
2023-05-16T02:54:14.047Z,9.20
2023-05-16T02:57:00.923Z,9.28
2023-05-16T02:59:48.445Z,9.22
2023-05-16T03:02:35.332Z,9.26
2023-05-16T03:05:22.641Z,9.35
2023-05-16T03:08:11.125Z,9.29
2023-05-16T03:10:58.037Z,9.23
2023-05-16T03:13:45.081Z,9.25
2023-05-16T03:16:36.797Z,9.23
2023-05-16T03:19:23.920Z,9.25
2023-05-16T03:22:12.060Z,9.30
2023-05-16T03:24:58.943Z,9.33
2023-05-16T03:27:46.107Z,9.32
2023-05-16T03:30:33.021Z,9.30
2023-05-16T03:33:20.148Z,9.28
2023-05-16T03:36:07.456Z,9.35
2023-05-16T03:38:54.457Z,9.38
2023-05-16T03:41:41.294Z,9.44
2023-05-16T03:44:28.170Z,9.42
2023-05-16T03:47:15.079Z,9.46
2023-05-16T03:50:01.941Z,9.50
2023-05-16T03:52:49.019Z,9.53
2023-05-16T03:55:36.110Z,9.56
2023-05-16T03:58:22.976Z,9.57
2023-05-16T04:01:09.830Z,9.48
2023-05-16T04:03:57.852Z,9.50
2023-05-16T04:06:45.721Z,9.54
2023-05-16T04:09:32.780Z,9.55
2023-05-16T04:12:19.617Z,9.62
2023-05-16T04:15:07.291Z,9.64
2023-05-16T04:17:54.366Z,9.76
2023-05-16T04:20:44.635Z,9.73
2023-05-16T04:23:31.475Z,9.82
2023-05-16T04:26:18.339Z,9.85
2023-05-16T04:29:06.067Z,9.84
2023-05-16T04:31:52.951Z,9.95
2023-05-16T04:34:40.559Z,10.19
2023-05-16T04:37:27.666Z,10.20
2023-05-16T04:40:15.032Z,10.23
2023-05-16T04:43:01.900Z,10.25
2023-05-16T04:45:48.998Z,10.29
2023-05-16T04:48:35.906Z,10.39
2023-05-16T04:51:22.747Z,10.52
2023-05-16T04:54:10.723Z,10.62
2023-05-16T04:56:57.558Z,10.74
2023-05-16T04:59:44.365Z,10.83
2023-05-16T05:02:31.326Z,10.84
2023-05-16T05:05:18.335Z,11.03
2023-05-16T05:08:05.539Z,11.11
2023-05-16T05:10:52.359Z,11.27
2023-05-16T05:13:39.330Z,11.27
2023-05-16T05:16:26.584Z,11.31
2023-05-16T05:19:13.422Z,11.41
2023-05-16T05:22:00.340Z,11.40
2023-05-16T05:24:47.246Z,11.57
2023-05-16T05:27:34.251Z,11.65
2023-05-16T05:30:21.453Z,11.58
2023-05-16T05:33:11.027Z,11.72
2023-05-16T05:35:57.955Z,11.79
2023-05-16T05:38:44.756Z,11.83
2023-05-16T05:41:31.907Z,11.97
2023-05-16T05:44:18.712Z,12.11
2023-05-16T05:47:09.032Z,12.12
2023-05-16T05:49:56.176Z,12.26
2023-05-16T05:52:43.235Z,12.32
2023-05-16T05:55:30.146Z,12.27
2023-05-16T05:58:18.281Z,12.48
2023-05-16T06:01:05.150Z,12.53
2023-05-16T06:03:52.015Z,12.54
2023-05-16T06:06:40.102Z,12.59
2023-05-16T06:09:26.990Z,12.55
2023-05-16T06:12:13.859Z,12.52
2023-05-16T06:15:00.917Z,12.58
2023-05-16T06:17:47.791Z,12.53
2023-05-16T06:20:34.715Z,12.60
2023-05-16T06:23:22.108Z,12.70
2023-05-16T06:26:09.006Z,12.78
2023-05-16T06:28:55.980Z,12.89
2023-05-16T06:31:42.954Z,13.10
2023-05-16T06:34:29.807Z,13.19
2023-05-16T06:37:17.085Z,13.37
2023-05-16T06:40:04.679Z,13.45
2023-05-16T06:42:51.605Z,13.50
2023-05-16T06:45:38.535Z,13.53
2023-05-16T06:48:25.670Z,13.64
2023-05-16T06:51:12.591Z,13.57
2023-05-16T06:53:59.957Z,13.78
2023-05-16T06:56:47.884Z,13.97
2023-05-16T06:59:35.979Z,13.97
2023-05-16T07:02:22.927Z,13.92
2023-05-16T07:05:10.304Z,13.79
2023-05-16T07:07:57.284Z,13.73
2023-05-16T07:10:44.618Z,13.80
2023-05-16T07:13:32.482Z,13.96
2023-05-16T07:16:20.638Z,13.91
2023-05-16T07:19:08.581Z,13.86
2023-05-16T07:21:55.531Z,13.80
2023-05-16T07:24:42.404Z,13.82
2023-05-16T07:27:29.279Z,13.87
2023-05-16T07:30:16.189Z,13.91
2023-05-16T07:33:03.178Z,13.95
2023-05-16T07:35:51.119Z,13.96
2023-05-16T07:38:38.282Z,13.99
2023-05-16T07:41:25.596Z,13.86
2023-05-16T07:44:12.656Z,13.86
2023-05-16T07:46:59.586Z,13.77
2023-05-16T07:49:46.475Z,13.77
2023-05-16T07:52:33.317Z,13.82
2023-05-16T07:55:22.181Z,13.77
2023-05-16T07:58:09.095Z,13.76
2023-05-16T08:00:56.087Z,13.62
2023-05-16T08:03:43.115Z,13.59
2023-05-16T08:06:30.129Z,13.56
2023-05-16T08:09:16.977Z,13.43
2023-05-16T08:12:04.089Z,13.49
2023-05-16T08:14:51.264Z,13.43
2023-05-16T08:17:38.743Z,13.43
2023-05-16T08:20:26.343Z,13.36
2023-05-16T08:23:14.714Z,13.36
2023-05-16T08:26:01.752Z,13.39
2023-05-16T08:28:49.145Z,13.42
2023-05-16T08:31:36.033Z,13.42
2023-05-16T08:34:22.973Z,13.39
2023-05-16T08:37:10.791Z,13.39
2023-05-16T08:39:58.717Z,13.35
2023-05-16T08:42:45.892Z,13.32
2023-05-16T08:45:33.138Z,13.32
2023-05-16T08:48:25.908Z,13.24
2023-05-16T08:51:22.490Z,13.25
2023-05-16T08:54:14.074Z,13.34
2023-05-16T08:57:02.482Z,13.34
2023-05-16T08:59:49.996Z,13.36
2023-05-16T09:02:38.272Z,13.42
2023-05-16T09:05:26.151Z,13.48
2023-05-16T09:08:13.310Z,13.53
2023-05-16T09:11:02.467Z,13.62
2023-05-16T09:13:49.827Z,13.71
2023-05-16T09:16:36.765Z,13.68
2023-05-16T09:19:23.757Z,13.73
2023-05-16T09:22:13.637Z,13.82
2023-05-16T09:25:00.736Z,13.82
2023-05-16T09:27:48.681Z,13.85
2023-05-16T09:30:35.732Z,13.90
2023-05-16T09:33:23.914Z,13.82
2023-05-16T09:36:10.831Z,13.79
2023-05-16T09:39:05.635Z,13.72
2023-05-16T09:41:52.693Z,13.76
2023-05-16T09:44:40.712Z,13.76
2023-05-16T09:47:28.492Z,13.68
2023-05-16T09:50:18.151Z,13.58
2023-05-16T09:53:05.889Z,13.50
2023-05-16T09:56:08.035Z,13.51
2023-05-16T09:58:54.918Z,13.27
2023-05-16T10:01:42.473Z,13.22
2023-05-16T10:04:29.577Z,13.28
2023-05-16T10:07:19.939Z,13.23
2023-05-16T10:10:08.550Z,13.23
2023-05-16T10:12:58.873Z,13.15
2023-05-16T10:15:47.361Z,13.15
2023-05-16T10:18:35.894Z,13.12
2023-05-16T10:21:25.952Z,13.17
2023-05-16T10:24:17.649Z,13.05
2023-05-16T10:27:05.374Z,13.02
2023-05-16T10:29:54.995Z,13.04
2023-05-16T10:32:42.941Z,12.98
2023-05-16T10:35:31.351Z,12.95
2023-05-16T10:38:19.949Z,12.88
2023-05-16T10:41:07.853Z,12.89
2023-05-16T10:43:59.213Z,12.88
2023-05-16T10:46:48.102Z,12.74
2023-05-16T10:49:35.110Z,12.79
2023-05-16T10:52:33.883Z,12.82
2023-05-16T10:55:20.789Z,12.75
2023-05-16T10:58:08.181Z,12.81
2023-05-16T11:01:21.081Z,12.81
2023-05-16T11:04:10.418Z,12.60
2023-05-16T11:06:58.091Z,12.57
2023-05-16T11:09:45.918Z,12.70
2023-05-16T11:12:39.157Z,12.75
2023-05-16T11:15:28.549Z,12.64
2023-05-16T11:18:17.192Z,12.60
2023-05-16T11:21:04.877Z,12.54
2023-05-16T11:24:30.672Z,12.43
2023-05-16T11:27:31.511Z,12.59
2023-05-16T11:30:22.017Z,12.58
2023-05-16T11:33:09.056Z,12.50
2023-05-16T11:39:06.706Z,12.62
2023-05-16T11:41:54.197Z,12.55
2023-05-16T11:44:41.361Z,12.57
2023-05-16T11:47:29.896Z,12.63
2023-05-16T11:50:22.104Z,12.56
2023-05-16T11:53:09.212Z,12.57
2023-05-16T11:55:57.090Z,12.53
2023-05-16T11:58:44.517Z,12.52
2023-05-16T12:01:39.316Z,12.50
2023-05-16T12:04:26.752Z,12.41
2023-05-16T12:07:13.766Z,12.42
2023-05-16T12:10:05.292Z,12.50
2023-05-16T12:12:54.813Z,12.54
2023-05-16T12:15:43.049Z,12.68
2023-05-16T12:18:30.171Z,12.67
2023-05-16T12:21:17.478Z,12.61
2023-05-16T12:24:04.808Z,12.47
2023-05-16T12:26:53.542Z,12.33
2023-05-16T12:29:40.776Z,12.44
2023-05-16T12:32:27.818Z,12.57
2023-05-16T12:35:18.510Z,12.62
2023-05-16T12:38:09.671Z,12.75
2023-05-16T12:40:59.462Z,12.87
2023-05-16T12:43:46.461Z,12.84
2023-05-16T12:46:33.518Z,13.06
2023-05-16T12:49:22.771Z,13.17
2023-05-16T12:52:17.775Z,13.17
2023-05-16T12:55:05.106Z,13.15
2023-05-16T12:57:52.108Z,13.11
2023-05-16T13:00:39.418Z,13.18
2023-05-16T13:03:26.381Z,13.38
2023-05-16T13:06:13.348Z,13.40
2023-05-16T13:09:00.414Z,13.55
2023-05-16T13:11:47.588Z,13.62
2023-05-16T13:14:34.554Z,13.56
2023-05-16T13:17:21.542Z,13.51
2023-05-16T13:20:10.095Z,13.49
2023-05-16T13:22:57.352Z,13.50
2023-05-16T13:25:44.300Z,13.47
2023-05-16T13:28:32.173Z,13.47
2023-05-16T13:31:19.467Z,13.45
2023-05-16T13:34:06.971Z,13.38
2023-05-16T13:36:54.916Z,13.45
2023-05-16T13:39:42.493Z,13.56
2023-05-16T13:42:29.345Z,13.65
2023-05-16T13:45:16.272Z,13.67
2023-05-16T13:48:03.268Z,13.72
2023-05-16T13:50:50.189Z,13.73
2023-05-16T13:53:37.118Z,13.72
2023-05-16T13:56:23.988Z,13.71
2023-05-16T13:59:15.246Z,13.62
2023-05-16T14:02:05.435Z,13.53
2023-05-16T14:04:53.217Z,13.54
2023-05-16T14:07:40.080Z,13.63
2023-05-16T14:10:27.205Z,13.66
2023-05-16T14:13:14.372Z,13.58
2023-05-16T14:16:02.376Z,13.63
2023-05-16T14:18:49.860Z,13.67
2023-05-16T14:21:36.721Z,13.59
2023-05-16T14:24:23.631Z,13.41
2023-05-16T14:27:10.672Z,13.31
2023-05-16T14:29:58.935Z,13.34
2023-05-16T14:32:45.805Z,13.31
2023-05-16T14:35:33.117Z,13.31
2023-05-16T14:38:20.901Z,13.14
2023-05-16T14:41:07.808Z,13.14
2023-05-16T14:43:56.172Z,13.12
2023-05-16T14:46:44.066Z,13.00
2023-05-16T14:49:31.121Z,12.94
2023-05-16T14:52:18.012Z,12.83
2023-05-16T14:55:06.164Z,12.72
2023-05-16T14:57:59.245Z,12.71
2023-05-16T15:00:46.740Z,12.61
2023-05-16T15:03:43.297Z,12.63
2023-05-16T15:06:35.264Z,12.56
2023-05-16T15:09:24.825Z,12.67
2023-05-16T15:12:11.706Z,12.79
2023-05-16T15:14:58.725Z,12.68
2023-05-16T15:17:45.695Z,12.55
2023-05-16T15:20:33.385Z,12.60
2023-05-16T15:23:20.828Z,12.64
2023-05-16T15:26:07.722Z,12.57
2023-05-16T15:28:55.683Z,12.55
2023-05-16T15:31:42.676Z,12.56
2023-05-16T15:34:29.652Z,12.43
2023-05-16T15:37:17.335Z,12.50
2023-05-16T15:40:05.104Z,12.47
2023-05-16T15:42:52.191Z,12.48
2023-05-16T15:45:40.495Z,12.46
2023-05-16T15:48:27.608Z,12.55
2023-05-16T15:51:15.882Z,12.55
2023-05-16T15:54:02.967Z,12.57
2023-05-16T15:56:49.812Z,12.58
2023-05-16T15:59:36.698Z,12.55
2023-05-16T16:02:23.631Z,12.52
2023-05-16T16:05:10.813Z,12.55
2023-05-16T16:07:57.663Z,12.50
2023-05-16T16:10:47.695Z,12.48
2023-05-16T16:13:34.937Z,12.52
2023-05-16T16:16:21.913Z,12.53
2023-05-16T16:19:08.852Z,12.48
2023-05-16T16:21:55.801Z,12.38
2023-05-16T16:24:42.738Z,12.44
2023-05-16T16:27:29.633Z,12.46
2023-05-16T16:30:16.560Z,12.43
2023-05-16T16:33:03.804Z,12.39
2023-05-16T16:35:52.035Z,12.39
2023-05-16T16:38:39.060Z,12.33
2023-05-16T16:41:26.061Z,12.28
2023-05-16T16:44:13.180Z,12.28
2023-05-16T16:47:00.085Z,12.23
2023-05-16T16:49:47.065Z,12.22
2023-05-16T16:52:35.617Z,12.07
2023-05-16T16:55:22.503Z,11.85
2023-05-16T16:58:09.347Z,11.79
2023-05-16T17:00:56.256Z,11.75
2023-05-16T17:03:43.267Z,11.84
2023-05-16T17:06:30.405Z,11.89
2023-05-16T17:09:17.994Z,11.93
2023-05-16T17:12:08.435Z,11.96
2023-05-16T17:14:57.195Z,12.01
2023-05-16T17:17:45.634Z,11.96
2023-05-16T17:20:33.461Z,11.91
2023-05-16T17:23:20.321Z,11.96
2023-05-16T17:26:07.626Z,11.98
2023-05-16T17:28:56.656Z,12.06
2023-05-16T17:31:43.566Z,12.07
2023-05-16T17:34:31.345Z,12.09
2023-05-16T17:37:18.240Z,12.01
2023-05-16T17:40:09.949Z,11.96
2023-05-16T17:42:57.107Z,11.87
2023-05-16T17:45:44.304Z,11.87
2023-05-16T17:48:31.164Z,11.89
2023-05-16T17:51:18.038Z,11.89
2023-05-16T17:54:04.907Z,11.90
2023-05-16T17:56:53.574Z,11.97
2023-05-16T17:59:40.432Z,11.93
2023-05-16T18:02:27.416Z,11.91
2023-05-16T18:05:16.403Z,11.95
2023-05-16T18:08:03.771Z,11.92
2023-05-16T18:10:52.499Z,11.85
2023-05-16T18:13:39.913Z,11.84
2023-05-16T18:16:26.948Z,11.68
2023-05-16T18:19:14.193Z,11.56
2023-05-16T18:22:01.180Z,11.60
2023-05-16T18:24:48.177Z,11.48
2023-05-16T18:27:35.977Z,11.41
2023-05-16T18:30:23.466Z,11.44
2023-05-16T18:33:10.443Z,11.32
2023-05-16T18:35:57.326Z,11.38
2023-05-16T18:38:44.303Z,11.47
2023-05-16T18:41:31.282Z,11.39
2023-05-16T18:44:18.189Z,11.35
2023-05-16T18:47:05.375Z,11.23
2023-05-16T18:49:52.668Z,11.15
2023-05-16T18:52:40.654Z,11.15
2023-05-16T18:55:28.158Z,11.15
2023-05-16T18:58:15.859Z,11.08
2023-05-16T19:01:03.927Z,10.91
2023-05-16T19:03:51.261Z,10.80
2023-05-16T19:06:38.207Z,10.85
2023-05-16T19:09:25.254Z,10.71
2023-05-16T19:12:12.416Z,10.73
2023-05-16T19:14:59.427Z,10.74
2023-05-16T19:17:47.198Z,10.61
2023-05-16T19:20:35.653Z,10.67
2023-05-16T19:23:22.526Z,10.58
2023-05-16T19:26:09.426Z,10.49
2023-05-16T19:28:56.541Z,10.60
2023-05-16T19:31:43.402Z,10.48
2023-05-16T19:34:30.338Z,10.52
2023-05-16T19:37:17.321Z,10.41
2023-05-16T19:40:04.981Z,10.38
2023-05-16T19:42:51.967Z,10.34
2023-05-16T19:45:38.863Z,10.32
2023-05-16T19:48:25.948Z,10.31
2023-05-16T19:51:12.938Z,10.28
2023-05-16T19:53:59.839Z,10.26
2023-05-16T19:56:52.764Z,10.30
2023-05-16T19:59:39.549Z,10.10
2023-05-16T20:02:26.537Z,10.16
2023-05-16T20:05:14.656Z,10.12
2023-05-16T20:08:01.691Z,10.11
2023-05-16T20:10:48.575Z,10.04
2023-05-16T20:13:35.749Z,10.12
2023-05-16T20:16:22.636Z,10.14
2023-05-16T20:19:09.607Z,10.10
2023-05-16T20:21:56.748Z,10.10
2023-05-16T20:24:43.619Z,10.18
2023-05-16T20:27:31.807Z,10.18
2023-05-16T20:30:19.002Z,10.28
2023-05-16T20:33:06.088Z,10.24
2023-05-16T20:35:52.979Z,10.34
2023-05-16T20:38:39.963Z,10.34
2023-05-16T20:41:26.807Z,10.32
2023-05-16T20:44:14.603Z,10.45
2023-05-16T20:47:01.603Z,10.42
2023-05-16T20:49:48.559Z,10.43
2023-05-16T20:52:35.490Z,10.32
2023-05-16T20:55:23.307Z,10.24
2023-05-16T20:58:10.149Z,10.21
2023-05-16T21:00:57.051Z,10.13
2023-05-16T21:03:43.990Z,9.98
2023-05-16T21:06:31.481Z,10.04
2023-05-16T21:09:18.339Z,9.95
2023-05-16T21:12:05.777Z,9.93
2023-05-16T21:14:52.752Z,9.95
2023-05-16T21:17:40.975Z,9.88
2023-05-16T21:20:30.046Z,9.83
2023-05-16T21:23:16.955Z,9.79
2023-05-16T21:26:03.820Z,9.76
2023-05-16T21:28:55.208Z,9.78
2023-05-16T21:31:42.639Z,9.78
2023-05-16T21:34:29.539Z,9.62
2023-05-16T21:37:16.867Z,9.64
2023-05-16T21:40:04.196Z,9.63
2023-05-16T21:42:52.520Z,9.61
2023-05-16T21:45:40.345Z,9.54
2023-05-16T21:48:27.307Z,9.59
2023-05-16T21:51:14.234Z,9.61
2023-05-16T21:54:03.041Z,9.65
2023-05-16T21:56:49.952Z,9.72
2023-05-16T21:59:36.815Z,9.73
2023-05-16T22:02:23.936Z,9.70
2023-05-16T22:05:11.299Z,9.63
2023-05-16T22:07:58.386Z,9.60
2023-05-16T22:10:45.271Z,9.51
2023-05-16T22:13:32.186Z,9.51
2023-05-16T22:16:19.167Z,9.57
2023-05-16T22:19:06.730Z,9.60
2023-05-16T22:21:53.665Z,9.62
2023-05-16T22:24:40.546Z,9.65
2023-05-16T22:27:27.413Z,9.64
2023-05-16T22:30:14.367Z,9.70
2023-05-16T22:33:03.523Z,9.73
2023-05-16T22:35:50.849Z,9.74
2023-05-16T22:38:37.764Z,9.62
2023-05-16T22:41:24.685Z,9.60
2023-05-16T22:44:11.553Z,9.61
2023-05-16T22:46:58.444Z,9.53
2023-05-16T22:49:45.280Z,9.54
2023-05-16T22:52:32.294Z,9.60
2023-05-16T22:55:19.220Z,9.45
2023-05-16T22:58:06.110Z,9.47
2023-05-16T23:00:53.052Z,9.54
2023-05-16T23:03:39.976Z,9.48
2023-05-16T23:06:26.935Z,9.37
2023-05-16T23:09:13.822Z,9.32
2023-05-16T23:12:01.627Z,9.36
2023-05-16T23:14:48.582Z,9.42
2023-05-16T23:17:39.284Z,9.51
2023-05-16T23:20:26.410Z,9.60
2023-05-16T23:23:13.253Z,9.78
2023-05-16T23:26:00.248Z,9.82
2023-05-16T23:28:47.101Z,9.78
2023-05-16T23:31:33.986Z,9.81
2023-05-16T23:34:20.853Z,9.79
2023-05-16T23:37:07.720Z,9.85
2023-05-16T23:39:54.570Z,9.85
2023-05-16T23:42:41.535Z,9.86
2023-05-16T23:45:30.286Z,9.86
2023-05-16T23:48:17.447Z,9.75
2023-05-16T23:51:07.373Z,9.83
2023-05-16T23:53:54.323Z,9.85
2023-05-16T23:56:41.234Z,9.86
2023-05-16T23:59:28.186Z,9.78
